createdAt,value
2023-03-23T15:58:49.623Z,101319.59
2023-03-23T16:01:23.207Z,101327.47
2023-03-23T16:03:56.582Z,101327.00
2023-03-23T16:06:26.685Z,101330.06
2023-03-23T16:08:55.502Z,101330.75
2023-03-23T16:11:24.763Z,101332.31
2023-03-23T16:13:51.879Z,101328.75
2023-03-23T16:16:23.306Z,101323.13
2023-03-23T16:18:50.759Z,101330.53
2023-03-23T16:21:18.167Z,101333.25
2023-03-23T16:23:46.614Z,101333.06
2023-03-23T16:26:15.651Z,101341.94
2023-03-23T16:28:43.882Z,101340.34
2023-03-23T16:31:11.427Z,101332.75
2023-03-23T16:33:39.319Z,101335.63
2023-03-23T16:36:08.379Z,101340.47
2023-03-23T16:38:48.996Z,101340.28
2023-03-23T16:41:17.439Z,101347.22
2023-03-23T16:43:44.758Z,101344.28
2023-03-23T16:46:13.900Z,101344.44
2023-03-23T16:48:41.176Z,101344.88
2023-03-23T16:51:08.500Z,101352.25
2023-03-23T16:53:36.542Z,101345.44
2023-03-23T16:56:04.807Z,101345.91
2023-03-23T16:58:32.013Z,101349.53
2023-03-23T17:00:59.324Z,101353.41
2023-03-23T17:03:26.634Z,101357.56
2023-03-23T17:05:54.371Z,101359.31
2023-03-23T17:08:21.902Z,101360.56
2023-03-23T17:10:49.656Z,101373.97
2023-03-23T17:13:17.608Z,101368.13
2023-03-23T17:15:46.852Z,101376.13
2023-03-23T17:18:15.357Z,101373.72
2023-03-23T17:20:43.227Z,101377.88
2023-03-23T17:23:10.706Z,101383.78
2023-03-23T17:25:37.942Z,101372.97
2023-03-23T17:28:06.959Z,101379.38
2023-03-23T17:30:35.500Z,101385.47
2023-03-23T17:33:03.173Z,101390.47
2023-03-23T17:35:30.361Z,101388.97
2023-03-23T17:37:57.629Z,101389.56
2023-03-23T17:40:24.840Z,101387.56
2023-03-23T17:42:51.997Z,101399.97
2023-03-23T17:45:19.283Z,101396.84
2023-03-23T17:47:48.698Z,101397.75
2023-03-23T17:50:16.953Z,101391.47
2023-03-23T17:52:44.297Z,101400.91
2023-03-23T17:55:11.853Z,101401.22
2023-03-23T17:57:39.694Z,101408.09
2023-03-23T18:00:08.829Z,101411.13
2023-03-23T18:02:37.598Z,101414.69
2023-03-23T18:05:06.630Z,101420.97
2023-03-23T18:07:33.901Z,101416.00
2023-03-23T18:10:01.442Z,101420.97
2023-03-23T18:12:29.113Z,101427.53
2023-03-23T18:14:57.739Z,101430.78
2023-03-23T18:17:25.941Z,101430.69
2023-03-23T18:19:53.032Z,101437.38
2023-03-23T18:22:20.424Z,101442.44
2023-03-23T18:24:47.747Z,101439.06
2023-03-23T18:27:15.047Z,101444.22
2023-03-23T18:29:42.574Z,101439.56
2023-03-23T18:32:10.033Z,101447.91
2023-03-23T18:34:38.012Z,101455.91
2023-03-23T18:37:05.399Z,101454.09
2023-03-23T18:39:35.266Z,101459.25
2023-03-23T18:42:02.433Z,101462.59
2023-03-23T18:44:30.567Z,101468.78
2023-03-23T18:46:58.103Z,101469.91
2023-03-23T18:49:25.800Z,101464.19
2023-03-23T18:51:52.844Z,101460.16
2023-03-23T18:54:20.904Z,101463.31
2023-03-23T18:56:48.870Z,101463.41
2023-03-23T18:59:17.029Z,101472.25
2023-03-23T19:01:45.063Z,101476.50
2023-03-23T19:04:13.737Z,101489.19
2023-03-23T19:06:43.346Z,101489.59
2023-03-23T19:09:10.372Z,101483.41
2023-03-23T19:11:37.454Z,101493.59
2023-03-23T19:14:05.502Z,101496.63
2023-03-23T19:16:36.255Z,101495.91
2023-03-23T19:19:11.531Z,101508.25
2023-03-23T19:21:40.494Z,101510.31
2023-03-23T19:24:08.167Z,101501.06
2023-03-23T19:26:38.690Z,101503.78
2023-03-23T19:31:38.930Z,101507.72
2023-03-23T19:34:06.249Z,101512.38
2023-03-23T19:36:33.473Z,101517.56
2023-03-23T19:39:02.558Z,101513.50
2023-03-23T19:41:31.359Z,101514.91
2023-03-23T19:43:59.547Z,101506.50
2023-03-23T19:46:29.920Z,101528.16
2023-03-23T19:48:59.165Z,101525.22
2023-03-23T19:51:28.525Z,101531.81
2023-03-23T19:53:57.969Z,101534.81
2023-03-23T19:56:26.026Z,101536.22
2023-03-23T19:58:54.625Z,101539.88
2023-03-23T20:01:22.243Z,101542.88
2023-03-23T20:03:49.928Z,101544.00
2023-03-23T20:06:18.595Z,101539.66
2023-03-23T20:08:50.710Z,101548.13
2023-03-23T20:11:19.887Z,101548.72
2023-03-23T20:13:49.137Z,101548.72
2023-03-23T20:16:19.176Z,101556.91
2023-03-23T20:18:49.943Z,101551.38
2023-03-23T20:21:22.805Z,101553.00
2023-03-23T20:23:54.532Z,101559.06
2023-03-23T20:26:27.397Z,101551.56
2023-03-23T20:28:56.034Z,101549.41
2023-03-23T20:31:27.421Z,101552.72
2023-03-23T20:34:02.331Z,101551.94
2023-03-23T20:36:37.610Z,101553.25
2023-03-23T20:39:10.883Z,101562.53
2023-03-23T20:41:41.984Z,101561.53
2023-03-23T20:44:14.456Z,101560.19
2023-03-23T20:46:47.010Z,101554.34
2023-03-23T20:49:18.257Z,101564.47
2023-03-23T20:51:48.747Z,101563.66
2023-03-23T20:54:18.973Z,101570.84
2023-03-23T20:56:47.929Z,101565.06
2023-03-23T20:59:17.168Z,101574.91
2023-03-23T21:01:46.836Z,101572.66
2023-03-23T21:04:19.059Z,101569.72
2023-03-23T21:06:49.982Z,101574.66
2023-03-23T21:09:18.678Z,101578.28
2023-03-23T21:11:47.908Z,101578.88
2023-03-23T21:14:16.824Z,101571.78
2023-03-23T21:16:45.184Z,101571.84
2023-03-23T21:19:14.201Z,101574.69
2023-03-23T21:21:56.556Z,101580.41
2023-03-23T21:24:32.133Z,101578.84
2023-03-23T21:27:03.173Z,101583.81
2023-03-23T21:29:31.171Z,101577.31
2023-03-23T21:32:08.892Z,101579.38
2023-03-23T21:34:39.650Z,101581.22
2023-03-23T21:37:07.342Z,101582.06
2023-03-23T21:39:34.884Z,101576.59
2023-03-23T21:42:05.676Z,101579.91
2023-03-23T21:44:39.427Z,101587.06
2023-03-23T21:47:10.416Z,101581.09
2023-03-23T21:49:40.379Z,101580.88
2023-03-23T21:52:09.091Z,101583.06
2023-03-23T21:54:38.456Z,101580.13
2023-03-23T21:57:05.915Z,101580.16
2023-03-23T21:59:33.543Z,101587.31
2023-03-23T22:02:02.175Z,101590.91
2023-03-23T22:04:29.551Z,101582.78
2023-03-23T22:06:57.206Z,101587.72
2023-03-23T22:09:24.573Z,101594.00
2023-03-23T22:11:52.930Z,101595.06
2023-03-23T22:14:21.526Z,101592.97
2023-03-23T22:16:49.084Z,101594.34
2023-03-23T22:19:16.338Z,101591.66
2023-03-23T22:21:43.975Z,101599.91
2023-03-23T22:24:13.478Z,101600.28
2023-03-23T22:26:41.600Z,101596.97
2023-03-23T22:29:11.326Z,101599.13
2023-03-23T22:31:40.095Z,101592.81
2023-03-23T22:34:07.439Z,101592.31
2023-03-23T22:36:34.933Z,101590.94
2023-03-23T22:39:02.644Z,101595.84
2023-03-23T22:41:32.759Z,101593.69
2023-03-23T22:44:00.476Z,101593.41
2023-03-23T22:46:27.770Z,101591.78
2023-03-23T22:48:55.479Z,101599.38
2023-03-23T22:51:23.633Z,101586.91
2023-03-23T22:53:50.952Z,101591.56
2023-03-23T22:56:18.615Z,101595.03
2023-03-23T22:58:46.231Z,101596.66
2023-03-23T23:01:16.882Z,101597.25
2023-03-23T23:03:44.693Z,101600.84
2023-03-23T23:06:13.363Z,101605.53
2023-03-23T23:08:41.500Z,101601.47
2023-03-23T23:11:12.200Z,101597.94
2023-03-23T23:13:41.284Z,101607.00
2023-03-23T23:16:09.894Z,101604.84
2023-03-23T23:18:38.779Z,101597.22
2023-03-23T23:21:09.272Z,101599.94
2023-03-23T23:23:36.940Z,101604.28
2023-03-23T23:26:04.940Z,101610.22
2023-03-23T23:28:32.439Z,101607.72
2023-03-23T23:30:59.917Z,101610.44
2023-03-23T23:33:28.128Z,101597.94
2023-03-23T23:35:56.544Z,101610.44
2023-03-23T23:38:23.951Z,101612.34
2023-03-23T23:40:51.793Z,101611.22
2023-03-23T23:43:19.001Z,101606.34
2023-03-23T23:45:46.375Z,101607.72
2023-03-23T23:48:13.770Z,101605.66
2023-03-23T23:50:41.076Z,101596.75
2023-03-23T23:53:10.047Z,101605.22
2023-03-23T23:55:39.814Z,101610.44
2023-03-23T23:58:07.145Z,101605.84
